sensor_id;sensor_type;location;lat;lon;timestamp;temperature;humidity
8832;DHT22;4452;50.756;4.472;2023-09-30T00:02:12;12.00;99.90
8832;DHT22;4452;50.756;4.472;2023-09-30T00:04:39;11.90;99.90
8832;DHT22;4452;50.756;4.472;2023-09-30T00:07:05;11.90;99.90
8832;DHT22;4452;50.756;4.472;2023-09-30T00:09:31;11.80;99.90
8832;DHT22;4452;50.756;4.472;2023-09-30T00:11:57;11.80;99.90
8832;DHT22;4452;50.756;4.472;2023-09-30T00:14:23;11.80;99.90
8832;DHT22;4452;50.756;4.472;2023-09-30T00:16:49;11.70;99.90
8832;DHT22;4452;50.756;4.472;2023-09-30T00:19:16;11.70;99.90
8832;DHT22;4452;50.756;4.472;2023-09-30T00:21:42;11.70;99.90
8832;DHT22;4452;50.756;4.472;2023-09-30T00:24:08;11.70;99.90
8832;DHT22;4452;50.756;4.472;2023-09-30T00:26:34;11.70;99.90
8832;DHT22;4452;50.756;4.472;2023-09-30T00:29:01;11.70;99.90
8832;DHT22;4452;50.756;4.472;2023-09-30T00:31:30;11.60;99.90
8832;DHT22;4452;50.756;4.472;2023-09-30T00:33:56;11.60;99.90
8832;DHT22;4452;50.756;4.472;2023-09-30T00:36:22;11.60;99.90
8832;DHT22;4452;50.756;4.472;2023-09-30T00:38:47;11.60;99.90
8832;DHT22;4452;50.756;4.472;2023-09-30T00:41:13;11.60;99.90
8832;DHT22;4452;50.756;4.472;2023-09-30T00:43:39;11.60;99.90
8832;DHT22;4452;50.756;4.472;2023-09-30T00:46:25;11.60;99.90
8832;DHT22;4452;50.756;4.472;2023-09-30T00:48:53;11.70;99.90
8832;DHT22;4452;50.756;4.472;2023-09-30T00:51:20;11.70;99.90
8832;DHT22;4452;50.756;4.472;2023-09-30T00:53:46;11.70;99.90
8832;DHT22;4452;50.756;4.472;2023-09-30T00:56:12;11.70;99.90
8832;DHT22;4452;50.756;4.472;2023-09-30T00:58:39;11.80;99.90
8832;DHT22;4452;50.756;4.472;2023-09-30T01:01:05;11.80;99.90
8832;DHT22;4452;50.756;4.472;2023-09-30T01:03:31;11.80;99.90
8832;DHT22;4452;50.756;4.472;2023-09-30T01:05:57;11.70;99.90
8832;DHT22;4452;50.756;4.472;2023-09-30T01:08:23;11.70;99.90
8832;DHT22;4452;50.756;4.472;2023-09-30T01:10:49;11.70;99.90
8832;DHT22;4452;50.756;4.472;2023-09-30T01:13:16;11.70;99.90
8832;DHT22;4452;50.756;4.472;2023-09-30T01:15:42;11.80;99.90
8832;DHT22;4452;50.756;4.472;2023-09-30T01:18:07;11.80;99.90
8832;DHT22;4452;50.756;4.472;2023-09-30T01:20:33;11.90;99.90
8832;DHT22;4452;50.756;4.472;2023-09-30T01:22:59;11.90;99.90
8832;DHT22;4452;50.756;4.472;2023-09-30T01:25:26;11.80;99.90
8832;DHT22;4452;50.756;4.472;2023-09-30T01:27:53;11.90;99.90
8832;DHT22;4452;50.756;4.472;2023-09-30T01:30:19;11.90;99.90
8832;DHT22;4452;50.756;4.472;2023-09-30T01:32:47;11.90;99.90
8832;DHT22;4452;50.756;4.472;2023-09-30T01:35:13;11.70;99.90
8832;DHT22;4452;50.756;4.472;2023-09-30T01:37:39;11.60;99.90
8832;DHT22;4452;50.756;4.472;2023-09-30T01:40:06;11.50;99.90
8832;DHT22;4452;50.756;4.472;2023-09-30T01:42:37;11.40;99.90
8832;DHT22;4452;50.756;4.472;2023-09-30T01:45:04;11.40;99.90
8832;DHT22;4452;50.756;4.472;2023-09-30T01:47:30;11.60;99.90
8832;DHT22;4452;50.756;4.472;2023-09-30T01:49:56;11.70;99.90
8832;DHT22;4452;50.756;4.472;2023-09-30T01:52:21;11.70;99.90
8832;DHT22;4452;50.756;4.472;2023-09-30T01:54:47;11.90;99.90
8832;DHT22;4452;50.756;4.472;2023-09-30T01:57:13;12.00;99.90
8832;DHT22;4452;50.756;4.472;2023-09-30T01:59:39;12.00;99.90
8832;DHT22;4452;50.756;4.472;2023-09-30T02:02:04;12.10;99.90
8832;DHT22;4452;50.756;4.472;2023-09-30T02:04:30;12.00;99.90
8832;DHT22;4452;50.756;4.472;2023-09-30T02:06:56;12.10;99.90
8832;DHT22;4452;50.756;4.472;2023-09-30T02:09:22;12.20;99.90
8832;DHT22;4452;50.756;4.472;2023-09-30T02:11:47;12.20;99.90
8832;DHT22;4452;50.756;4.472;2023-09-30T02:14:14;12.20;99.90
8832;DHT22;4452;50.756;4.472;2023-09-30T02:16:39;12.10;99.90
8832;DHT22;4452;50.756;4.472;2023-09-30T02:19:05;12.10;99.90
8832;DHT22;4452;50.756;4.472;2023-09-30T02:21:32;12.10;99.90
8832;DHT22;4452;50.756;4.472;2023-09-30T02:23:57;12.00;99.90
8832;DHT22;4452;50.756;4.472;2023-09-30T02:26:23;12.00;99.90
8832;DHT22;4452;50.756;4.472;2023-09-30T02:28:51;12.10;99.90
8832;DHT22;4452;50.756;4.472;2023-09-30T02:31:19;11.90;99.90
8832;DHT22;4452;50.756;4.472;2023-09-30T02:33:44;11.80;99.90
8832;DHT22;4452;50.756;4.472;2023-09-30T02:36:11;11.50;99.90
8832;DHT22;4452;50.756;4.472;2023-09-30T02:38:38;11.50;99.90
8832;DHT22;4452;50.756;4.472;2023-09-30T02:41:04;11.40;99.90
8832;DHT22;4452;50.756;4.472;2023-09-30T02:43:30;11.30;99.90
8832;DHT22;4452;50.756;4.472;2023-09-30T02:45:56;11.20;99.90
8832;DHT22;4452;50.756;4.472;2023-09-30T02:48:22;11.30;99.90
8832;DHT22;4452;50.756;4.472;2023-09-30T02:50:47;11.20;99.90
8832;DHT22;4452;50.756;4.472;2023-09-30T02:53:13;11.20;99.90
8832;DHT22;4452;50.756;4.472;2023-09-30T02:55:42;11.20;99.90
8832;DHT22;4452;50.756;4.472;2023-09-30T02:58:08;11.20;99.90
8832;DHT22;4452;50.756;4.472;2023-09-30T03:00:37;11.20;99.90
8832;DHT22;4452;50.756;4.472;2023-09-30T03:03:04;11.10;99.90
8832;DHT22;4452;50.756;4.472;2023-09-30T03:05:30;11.10;99.90
8832;DHT22;4452;50.756;4.472;2023-09-30T03:07:59;11.20;99.90
8832;DHT22;4452;50.756;4.472;2023-09-30T03:10:25;11.20;99.90
8832;DHT22;4452;50.756;4.472;2023-09-30T03:12:58;11.20;99.90
8832;DHT22;4452;50.756;4.472;2023-09-30T03:15:28;11.10;99.90
8832;DHT22;4452;50.756;4.472;2023-09-30T03:17:57;11.20;99.90
8832;DHT22;4452;50.756;4.472;2023-09-30T03:20:25;11.20;99.90
8832;DHT22;4452;50.756;4.472;2023-09-30T03:22:51;11.40;99.90
8832;DHT22;4452;50.756;4.472;2023-09-30T03:25:18;11.40;99.90
8832;DHT22;4452;50.756;4.472;2023-09-30T03:27:45;11.40;99.90
8832;DHT22;4452;50.756;4.472;2023-09-30T03:30:15;11.40;99.90
8832;DHT22;4452;50.756;4.472;2023-09-30T03:32:41;11.40;99.90
8832;DHT22;4452;50.756;4.472;2023-09-30T03:35:08;11.40;99.90
8832;DHT22;4452;50.756;4.472;2023-09-30T03:37:43;11.50;99.90
8832;DHT22;4452;50.756;4.472;2023-09-30T03:40:09;11.40;99.90
8832;DHT22;4452;50.756;4.472;2023-09-30T03:42:40;11.30;99.90
8832;DHT22;4452;50.756;4.472;2023-09-30T03:45:08;11.20;99.90
8832;DHT22;4452;50.756;4.472;2023-09-30T03:47:36;11.10;99.90
8832;DHT22;4452;50.756;4.472;2023-09-30T03:50:02;11.00;99.90
8832;DHT22;4452;50.756;4.472;2023-09-30T03:52:29;11.00;99.90
8832;DHT22;4452;50.756;4.472;2023-09-30T03:54:55;10.90;99.90
8832;DHT22;4452;50.756;4.472;2023-09-30T03:57:20;10.90;99.90
8832;DHT22;4452;50.756;4.472;2023-09-30T03:59:46;10.80;99.90
8832;DHT22;4452;50.756;4.472;2023-09-30T04:02:12;10.70;99.90
8832;DHT22;4452;50.756;4.472;2023-09-30T04:04:40;10.70;99.90
8832;DHT22;4452;50.756;4.472;2023-09-30T04:07:05;10.70;99.90
8832;DHT22;4452;50.756;4.472;2023-09-30T04:09:32;10.70;99.90
8832;DHT22;4452;50.756;4.472;2023-09-30T04:11:58;10.70;99.90
8832;DHT22;4452;50.756;4.472;2023-09-30T04:14:24;10.70;99.90
8832;DHT22;4452;50.756;4.472;2023-09-30T04:16:50;10.70;99.90
8832;DHT22;4452;50.756;4.472;2023-09-30T04:19:16;10.70;99.90
8832;DHT22;4452;50.756;4.472;2023-09-30T04:21:42;10.80;99.90
8832;DHT22;4452;50.756;4.472;2023-09-30T04:24:08;10.90;99.90
8832;DHT22;4452;50.756;4.472;2023-09-30T04:26:35;10.90;99.90
8832;DHT22;4452;50.756;4.472;2023-09-30T04:29:00;11.10;99.90
8832;DHT22;4452;50.756;4.472;2023-09-30T04:31:28;11.10;99.90
8832;DHT22;4452;50.756;4.472;2023-09-30T04:33:54;11.10;99.90
8832;DHT22;4452;50.756;4.472;2023-09-30T04:36:20;11.10;99.90
8832;DHT22;4452;50.756;4.472;2023-09-30T04:38:47;11.20;99.90
8832;DHT22;4452;50.756;4.472;2023-09-30T04:41:13;11.20;99.90
8832;DHT22;4452;50.756;4.472;2023-09-30T04:43:38;11.20;99.90
8832;DHT22;4452;50.756;4.472;2023-09-30T04:46:05;11.20;99.90
8832;DHT22;4452;50.756;4.472;2023-09-30T04:48:32;11.20;99.90
8832;DHT22;4452;50.756;4.472;2023-09-30T04:50:58;11.20;99.90
8832;DHT22;4452;50.756;4.472;2023-09-30T04:53:24;11.20;99.90
8832;DHT22;4452;50.756;4.472;2023-09-30T04:55:50;11.20;99.90
8832;DHT22;4452;50.756;4.472;2023-09-30T04:58:16;11.10;99.90
8832;DHT22;4452;50.756;4.472;2023-09-30T05:00:42;11.10;99.90
8832;DHT22;4452;50.756;4.472;2023-09-30T05:03:08;11.20;99.90
8832;DHT22;4452;50.756;4.472;2023-09-30T05:05:34;11.10;99.90
8832;DHT22;4452;50.756;4.472;2023-09-30T05:08:01;11.20;99.90
8832;DHT22;4452;50.756;4.472;2023-09-30T05:10:27;11.20;99.90
8832;DHT22;4452;50.756;4.472;2023-09-30T05:12:52;11.10;99.90
8832;DHT22;4452;50.756;4.472;2023-09-30T05:15:21;11.20;99.90
8832;DHT22;4452;50.756;4.472;2023-09-30T05:17:48;11.20;99.90
8832;DHT22;4452;50.756;4.472;2023-09-30T05:20:16;11.20;99.90
8832;DHT22;4452;50.756;4.472;2023-09-30T05:22:46;11.20;99.90
8832;DHT22;4452;50.756;4.472;2023-09-30T05:25:16;11.20;99.90
8832;DHT22;4452;50.756;4.472;2023-09-30T05:27:42;11.20;99.90
8832;DHT22;4452;50.756;4.472;2023-09-30T05:30:08;11.20;99.90
8832;DHT22;4452;50.756;4.472;2023-09-30T05:32:36;11.20;99.90
8832;DHT22;4452;50.756;4.472;2023-09-30T05:35:05;11.20;99.90
8832;DHT22;4452;50.756;4.472;2023-09-30T05:37:31;11.20;99.90
8832;DHT22;4452;50.756;4.472;2023-09-30T05:39:57;11.20;99.90
8832;DHT22;4452;50.756;4.472;2023-09-30T05:42:23;11.20;99.90
8832;DHT22;4452;50.756;4.472;2023-09-30T05:44:48;11.20;99.90
8832;DHT22;4452;50.756;4.472;2023-09-30T05:47:14;11.10;99.90
8832;DHT22;4452;50.756;4.472;2023-09-30T05:49:41;11.20;99.90
8832;DHT22;4452;50.756;4.472;2023-09-30T05:52:07;11.20;99.90
8832;DHT22;4452;50.756;4.472;2023-09-30T05:54:33;11.30;99.90
8832;DHT22;4452;50.756;4.472;2023-09-30T05:56:58;11.20;99.90
8832;DHT22;4452;50.756;4.472;2023-09-30T05:59:26;11.60;99.90
8832;DHT22;4452;50.756;4.472;2023-09-30T06:01:53;11.20;99.90
8832;DHT22;4452;50.756;4.472;2023-09-30T06:04:19;11.20;99.90
8832;DHT22;4452;50.756;4.472;2023-09-30T06:06:46;11.20;99.90
8832;DHT22;4452;50.756;4.472;2023-09-30T06:09:12;11.10;99.90
8832;DHT22;4452;50.756;4.472;2023-09-30T06:11:37;11.10;99.90
8832;DHT22;4452;50.756;4.472;2023-09-30T06:14:03;11.10;99.90
8832;DHT22;4452;50.756;4.472;2023-09-30T06:16:32;11.10;99.90
8832;DHT22;4452;50.756;4.472;2023-09-30T06:18:57;11.10;99.90
8832;DHT22;4452;50.756;4.472;2023-09-30T06:21:24;11.20;99.90
8832;DHT22;4452;50.756;4.472;2023-09-30T06:23:55;11.20;99.90
8832;DHT22;4452;50.756;4.472;2023-09-30T06:26:21;11.20;99.90
8832;DHT22;4452;50.756;4.472;2023-09-30T06:28:46;11.20;99.90
8832;DHT22;4452;50.756;4.472;2023-09-30T06:31:14;11.20;99.90
8832;DHT22;4452;50.756;4.472;2023-09-30T06:33:39;11.20;99.90
8832;DHT22;4452;50.756;4.472;2023-09-30T06:36:12;11.30;99.90
8832;DHT22;4452;50.756;4.472;2023-09-30T06:38:44;11.40;99.90
8832;DHT22;4452;50.756;4.472;2023-09-30T06:41:18;11.50;99.90
8832;DHT22;4452;50.756;4.472;2023-09-30T06:43:46;11.50;99.90
8832;DHT22;4452;50.756;4.472;2023-09-30T06:46:14;11.50;99.90
8832;DHT22;4452;50.756;4.472;2023-09-30T06:48:44;11.60;99.90
8832;DHT22;4452;50.756;4.472;2023-09-30T06:51:14;11.70;99.90
8832;DHT22;4452;50.756;4.472;2023-09-30T06:53:41;11.80;99.90
8832;DHT22;4452;50.756;4.472;2023-09-30T06:56:08;11.90;99.90
8832;DHT22;4452;50.756;4.472;2023-09-30T06:58:36;11.90;99.90
8832;DHT22;4452;50.756;4.472;2023-09-30T07:01:03;12.00;99.90
8832;DHT22;4452;50.756;4.472;2023-09-30T07:03:28;12.10;99.90
8832;DHT22;4452;50.756;4.472;2023-09-30T07:05:56;12.20;99.90
8832;DHT22;4452;50.756;4.472;2023-09-30T07:08:22;12.30;99.90
8832;DHT22;4452;50.756;4.472;2023-09-30T07:10:48;12.40;99.90
8832;DHT22;4452;50.756;4.472;2023-09-30T07:13:18;12.40;99.90
8832;DHT22;4452;50.756;4.472;2023-09-30T07:15:44;12.50;99.90
8832;DHT22;4452;50.756;4.472;2023-09-30T07:18:09;12.50;99.90
8832;DHT22;4452;50.756;4.472;2023-09-30T07:20:35;12.60;99.90
8832;DHT22;4452;50.756;4.472;2023-09-30T07:23:02;12.60;99.90
8832;DHT22;4452;50.756;4.472;2023-09-30T07:25:31;12.70;99.90
8832;DHT22;4452;50.756;4.472;2023-09-30T07:28:02;12.80;99.90
8832;DHT22;4452;50.756;4.472;2023-09-30T07:30:30;12.90;99.90
8832;DHT22;4452;50.756;4.472;2023-09-30T07:32:58;12.90;99.90
8832;DHT22;4452;50.756;4.472;2023-09-30T07:35:25;13.00;99.90
8832;DHT22;4452;50.756;4.472;2023-09-30T07:37:51;13.00;99.90
8832;DHT22;4452;50.756;4.472;2023-09-30T07:40:18;13.10;99.90
8832;DHT22;4452;50.756;4.472;2023-09-30T07:42:44;13.10;99.90
8832;DHT22;4452;50.756;4.472;2023-09-30T07:45:10;13.10;99.90
8832;DHT22;4452;50.756;4.472;2023-09-30T07:47:36;13.10;99.90
8832;DHT22;4452;50.756;4.472;2023-09-30T07:50:03;13.20;99.90
8832;DHT22;4452;50.756;4.472;2023-09-30T07:52:35;13.40;99.90
8832;DHT22;4452;50.756;4.472;2023-09-30T07:55:01;13.40;99.90
8832;DHT22;4452;50.756;4.472;2023-09-30T07:57:30;13.20;99.90
8832;DHT22;4452;50.756;4.472;2023-09-30T07:59:56;13.40;99.90
8832;DHT22;4452;50.756;4.472;2023-09-30T08:02:21;13.40;99.90
8832;DHT22;4452;50.756;4.472;2023-09-30T08:04:48;13.40;99.90
8832;DHT22;4452;50.756;4.472;2023-09-30T08:07:13;13.40;99.90
8832;DHT22;4452;50.756;4.472;2023-09-30T08:09:39;13.50;99.90
8832;DHT22;4452;50.756;4.472;2023-09-30T08:12:05;13.60;99.90
8832;DHT22;4452;50.756;4.472;2023-09-30T08:14:32;13.50;99.90
8832;DHT22;4452;50.756;4.472;2023-09-30T08:16:57;13.70;99.90
8832;DHT22;4452;50.756;4.472;2023-09-30T08:19:23;13.50;99.90
8832;DHT22;4452;50.756;4.472;2023-09-30T08:21:49;13.60;99.90
8832;DHT22;4452;50.756;4.472;2023-09-30T08:24:14;13.80;99.90
8832;DHT22;4452;50.756;4.472;2023-09-30T08:26:40;13.90;99.90
8832;DHT22;4452;50.756;4.472;2023-09-30T08:29:06;14.00;99.90
8832;DHT22;4452;50.756;4.472;2023-09-30T08:31:32;14.20;99.90
8832;DHT22;4452;50.756;4.472;2023-09-30T08:33:58;14.20;99.90
8832;DHT22;4452;50.756;4.472;2023-09-30T08:36:24;14.40;99.90
8832;DHT22;4452;50.756;4.472;2023-09-30T08:38:50;14.50;99.90
8832;DHT22;4452;50.756;4.472;2023-09-30T08:41:32;14.60;99.90
8832;DHT22;4452;50.756;4.472;2023-09-30T08:44:00;14.80;99.90
8832;DHT22;4452;50.756;4.472;2023-09-30T08:46:33;14.80;99.90
8832;DHT22;4452;50.756;4.472;2023-09-30T08:49:01;15.20;99.90
8832;DHT22;4452;50.756;4.472;2023-09-30T08:51:29;15.40;99.90
8832;DHT22;4452;50.756;4.472;2023-09-30T08:53:56;15.30;99.90
8832;DHT22;4452;50.756;4.472;2023-09-30T08:56:28;15.50;99.90
8832;DHT22;4452;50.756;4.472;2023-09-30T08:58:58;15.60;99.90
8832;DHT22;4452;50.756;4.472;2023-09-30T09:01:28;15.60;99.90
8832;DHT22;4452;50.756;4.472;2023-09-30T09:03:57;15.60;99.90
8832;DHT22;4452;50.756;4.472;2023-09-30T09:06:24;15.80;99.90
8832;DHT22;4452;50.756;4.472;2023-09-30T09:08:51;16.10;99.90
8832;DHT22;4452;50.756;4.472;2023-09-30T09:11:17;16.30;99.90
8832;DHT22;4452;50.756;4.472;2023-09-30T09:13:50;16.50;99.90
8832;DHT22;4452;50.756;4.472;2023-09-30T09:16:18;16.40;99.90
8832;DHT22;4452;50.756;4.472;2023-09-30T09:18:44;16.40;99.90
8832;DHT22;4452;50.756;4.472;2023-09-30T09:21:21;16.30;99.90
8832;DHT22;4452;50.756;4.472;2023-09-30T09:23:49;16.40;99.90
8832;DHT22;4452;50.756;4.472;2023-09-30T09:26:29;16.40;99.90
8832;DHT22;4452;50.756;4.472;2023-09-30T09:29:00;16.40;99.90
8832;DHT22;4452;50.756;4.472;2023-09-30T09:31:27;16.40;99.90
8832;DHT22;4452;50.756;4.472;2023-09-30T09:33:54;16.30;99.90
8832;DHT22;4452;50.756;4.472;2023-09-30T09:36:19;16.50;99.90
8832;DHT22;4452;50.756;4.472;2023-09-30T09:38:47;16.60;99.90
8832;DHT22;4452;50.756;4.472;2023-09-30T09:41:14;16.70;99.90
8832;DHT22;4452;50.756;4.472;2023-09-30T09:43:43;17.00;99.90
8832;DHT22;4452;50.756;4.472;2023-09-30T09:46:10;17.00;99.90
8832;DHT22;4452;50.756;4.472;2023-09-30T09:48:36;16.70;99.90
8832;DHT22;4452;50.756;4.472;2023-09-30T09:51:04;16.40;99.90
8832;DHT22;4452;50.756;4.472;2023-09-30T09:53:30;16.20;99.90
8832;DHT22;4452;50.756;4.472;2023-09-30T09:55:59;16.20;99.90
8832;DHT22;4452;50.756;4.472;2023-09-30T09:58:27;16.20;99.90
8832;DHT22;4452;50.756;4.472;2023-09-30T10:00:53;16.20;99.90
8832;DHT22;4452;50.756;4.472;2023-09-30T10:03:19;16.50;99.90
8832;DHT22;4452;50.756;4.472;2023-09-30T10:05:45;16.70;99.90
8832;DHT22;4452;50.756;4.472;2023-09-30T10:08:15;16.90;99.90
8832;DHT22;4452;50.756;4.472;2023-09-30T10:10:43;17.30;99.90
8832;DHT22;4452;50.756;4.472;2023-09-30T10:13:09;17.40;99.90
8832;DHT22;4452;50.756;4.472;2023-09-30T10:15:55;17.50;99.90
8832;DHT22;4452;50.756;4.472;2023-09-30T10:18:21;17.60;99.90
8832;DHT22;4452;50.756;4.472;2023-09-30T10:20:47;18.10;99.90
8832;DHT22;4452;50.756;4.472;2023-09-30T10:23:24;18.50;99.90
8832;DHT22;4452;50.756;4.472;2023-09-30T10:26:12;18.10;99.90
8832;DHT22;4452;50.756;4.472;2023-09-30T10:28:43;17.90;99.90
8832;DHT22;4452;50.756;4.472;2023-09-30T10:31:19;17.50;99.90
8832;DHT22;4452;50.756;4.472;2023-09-30T10:36:30;17.10;99.90
8832;DHT22;4452;50.756;4.472;2023-09-30T10:38:56;17.50;99.90
8832;DHT22;4452;50.756;4.472;2023-09-30T10:46:54;18.30;99.90
8832;DHT22;4452;50.756;4.472;2023-09-30T10:51:56;18.30;99.90
8832;DHT22;4452;50.756;4.472;2023-09-30T10:54:23;18.40;99.90
8832;DHT22;4452;50.756;4.472;2023-09-30T10:56:49;18.30;99.90
8832;DHT22;4452;50.756;4.472;2023-09-30T10:59:24;18.60;99.90
8832;DHT22;4452;50.756;4.472;2023-09-30T11:01:51;19.20;99.90
8832;DHT22;4452;50.756;4.472;2023-09-30T11:04:17;19.10;99.90
8832;DHT22;4452;50.756;4.472;2023-09-30T11:06:44;19.00;99.90
8832;DHT22;4452;50.756;4.472;2023-09-30T11:09:15;18.90;99.90
8832;DHT22;4452;50.756;4.472;2023-09-30T11:11:47;19.10;99.90
8832;DHT22;4452;50.756;4.472;2023-09-30T11:14:36;19.40;99.90
8832;DHT22;4452;50.756;4.472;2023-09-30T11:17:03;19.80;99.90
8832;DHT22;4452;50.756;4.472;2023-09-30T11:19:36;19.90;99.90
8832;DHT22;4452;50.756;4.472;2023-09-30T11:22:03;20.00;99.90
8832;DHT22;4452;50.756;4.472;2023-09-30T11:24:29;20.20;99.90
8832;DHT22;4452;50.756;4.472;2023-09-30T11:26:55;20.80;99.90
8832;DHT22;4452;50.756;4.472;2023-09-30T11:29:23;21.00;99.90
8832;DHT22;4452;50.756;4.472;2023-09-30T11:31:50;20.40;99.90
8832;DHT22;4452;50.756;4.472;2023-09-30T11:34:19;19.80;99.90
8832;DHT22;4452;50.756;4.472;2023-09-30T11:36:50;19.90;99.90
8832;DHT22;4452;50.756;4.472;2023-09-30T11:39:26;20.20;99.90
8832;DHT22;4452;50.756;4.472;2023-09-30T11:41:53;20.20;99.90
8832;DHT22;4452;50.756;4.472;2023-09-30T11:44:21;20.00;99.90
8832;DHT22;4452;50.756;4.472;2023-09-30T11:49:52;19.70;99.90
8832;DHT22;4452;50.756;4.472;2023-09-30T11:52:26;19.40;99.90
8832;DHT22;4452;50.756;4.472;2023-09-30T11:54:53;19.10;99.90
8832;DHT22;4452;50.756;4.472;2023-09-30T11:57:19;19.00;99.90
8832;DHT22;4452;50.756;4.472;2023-09-30T11:59:45;19.50;99.90
8832;DHT22;4452;50.756;4.472;2023-09-30T12:02:12;19.80;99.90
8832;DHT22;4452;50.756;4.472;2023-09-30T12:04:41;19.60;99.90
8832;DHT22;4452;50.756;4.472;2023-09-30T12:07:07;19.10;99.90
8832;DHT22;4452;50.756;4.472;2023-09-30T12:09:33;18.90;99.90
8832;DHT22;4452;50.756;4.472;2023-09-30T12:12:03;18.90;99.90
8832;DHT22;4452;50.756;4.472;2023-09-30T12:14:29;18.80;99.90
8832;DHT22;4452;50.756;4.472;2023-09-30T12:16:56;18.50;99.90
8832;DHT22;4452;50.756;4.472;2023-09-30T12:19:22;19.30;99.90
8832;DHT22;4452;50.756;4.472;2023-09-30T12:21:48;19.80;99.90
8832;DHT22;4452;50.756;4.472;2023-09-30T12:24:15;19.90;99.90
8832;DHT22;4452;50.756;4.472;2023-09-30T12:26:46;19.70;99.90
8832;DHT22;4452;50.756;4.472;2023-09-30T12:29:17;19.90;99.90
8832;DHT22;4452;50.756;4.472;2023-09-30T12:31:51;19.90;99.90
8832;DHT22;4452;50.756;4.472;2023-09-30T12:34:16;20.80;99.90
8832;DHT22;4452;50.756;4.472;2023-09-30T12:36:43;20.80;99.90
8832;DHT22;4452;50.756;4.472;2023-09-30T12:39:09;20.50;99.90
8832;DHT22;4452;50.756;4.472;2023-09-30T12:41:42;20.50;99.90
8832;DHT22;4452;50.756;4.472;2023-09-30T12:44:09;20.80;99.90
8832;DHT22;4452;50.756;4.472;2023-09-30T12:46:35;20.70;99.90
8832;DHT22;4452;50.756;4.472;2023-09-30T12:49:08;20.00;99.90
8832;DHT22;4452;50.756;4.472;2023-09-30T12:51:34;20.50;99.90
8832;DHT22;4452;50.756;4.472;2023-09-30T12:54:01;20.80;99.90
8832;DHT22;4452;50.756;4.472;2023-09-30T12:56:27;20.80;99.90
8832;DHT22;4452;50.756;4.472;2023-09-30T12:58:55;20.30;99.90
8832;DHT22;4452;50.756;4.472;2023-09-30T13:01:21;20.50;99.90
8832;DHT22;4452;50.756;4.472;2023-09-30T13:03:48;21.20;99.90
8832;DHT22;4452;50.756;4.472;2023-09-30T13:06:14;21.50;99.90
8832;DHT22;4452;50.756;4.472;2023-09-30T13:08:41;21.40;99.90
8832;DHT22;4452;50.756;4.472;2023-09-30T13:11:08;21.60;99.90
8832;DHT22;4452;50.756;4.472;2023-09-30T13:13:34;21.10;99.90
8832;DHT22;4452;50.756;4.472;2023-09-30T13:16:01;20.80;99.90
8832;DHT22;4452;50.756;4.472;2023-09-30T13:18:27;21.60;99.90
8832;DHT22;4452;50.756;4.472;2023-09-30T13:20:53;20.80;99.90
8832;DHT22;4452;50.756;4.472;2023-09-30T13:23:19;20.80;99.90
8832;DHT22;4452;50.756;4.472;2023-09-30T13:25:45;21.70;99.90
8832;DHT22;4452;50.756;4.472;2023-09-30T13:28:10;22.50;99.90
8832;DHT22;4452;50.756;4.472;2023-09-30T13:30:38;23.20;99.90
8832;DHT22;4452;50.756;4.472;2023-09-30T13:33:04;23.50;99.90
8832;DHT22;4452;50.756;4.472;2023-09-30T13:35:29;22.50;99.90
8832;DHT22;4452;50.756;4.472;2023-09-30T13:37:55;22.10;99.90
8832;DHT22;4452;50.756;4.472;2023-09-30T13:40:21;23.00;99.90
8832;DHT22;4452;50.756;4.472;2023-09-30T13:42:46;23.10;99.90
8832;DHT22;4452;50.756;4.472;2023-09-30T13:45:12;23.40;99.90
8832;DHT22;4452;50.756;4.472;2023-09-30T13:47:38;22.90;99.90
8832;DHT22;4452;50.756;4.472;2023-09-30T13:50:05;22.20;99.90
8832;DHT22;4452;50.756;4.472;2023-09-30T13:52:34;22.20;99.90
8832;DHT22;4452;50.756;4.472;2023-09-30T13:55:00;22.40;99.90
8832;DHT22;4452;50.756;4.472;2023-09-30T13:57:26;22.30;99.90
8832;DHT22;4452;50.756;4.472;2023-09-30T13:59:51;22.00;99.90
8832;DHT22;4452;50.756;4.472;2023-09-30T14:02:17;21.80;99.90
8832;DHT22;4452;50.756;4.472;2023-09-30T14:04:43;21.60;99.90
8832;DHT22;4452;50.756;4.472;2023-09-30T14:07:09;22.70;99.90
8832;DHT22;4452;50.756;4.472;2023-09-30T14:09:35;23.20;99.90
8832;DHT22;4452;50.756;4.472;2023-09-30T14:12:01;22.80;99.90
8832;DHT22;4452;50.756;4.472;2023-09-30T14:14:31;22.50;99.90
8832;DHT22;4452;50.756;4.472;2023-09-30T14:16:57;22.50;99.90
8832;DHT22;4452;50.756;4.472;2023-09-30T14:19:23;23.40;99.90
8832;DHT22;4452;50.756;4.472;2023-09-30T14:21:49;23.40;99.90
8832;DHT22;4452;50.756;4.472;2023-09-30T14:24:15;24.00;99.90
8832;DHT22;4452;50.756;4.472;2023-09-30T14:26:40;23.70;99.90
8832;DHT22;4452;50.756;4.472;2023-09-30T14:29:06;23.20;99.90
8832;DHT22;4452;50.756;4.472;2023-09-30T14:31:32;22.80;99.90
8832;DHT22;4452;50.756;4.472;2023-09-30T14:33:57;22.20;99.90
8832;DHT22;4452;50.756;4.472;2023-09-30T14:36:23;22.80;99.90
8832;DHT22;4452;50.756;4.472;2023-09-30T14:38:49;22.90;99.90
8832;DHT22;4452;50.756;4.472;2023-09-30T14:41:15;22.70;99.90
8832;DHT22;4452;50.756;4.472;2023-09-30T14:43:41;23.10;99.90
8832;DHT22;4452;50.756;4.472;2023-09-30T14:46:07;22.60;99.90
8832;DHT22;4452;50.756;4.472;2023-09-30T14:48:34;21.80;99.90
8832;DHT22;4452;50.756;4.472;2023-09-30T14:50:59;22.80;99.90
8832;DHT22;4452;50.756;4.472;2023-09-30T14:53:25;22.00;99.90
8832;DHT22;4452;50.756;4.472;2023-09-30T14:55:51;22.00;99.90
8832;DHT22;4452;50.756;4.472;2023-09-30T14:58:17;22.30;99.90
8832;DHT22;4452;50.756;4.472;2023-09-30T15:00:43;22.20;99.90
8832;DHT22;4452;50.756;4.472;2023-09-30T15:03:08;22.90;99.90
8832;DHT22;4452;50.756;4.472;2023-09-30T15:05:34;23.30;99.90
8832;DHT22;4452;50.756;4.472;2023-09-30T15:08:01;23.10;99.90
8832;DHT22;4452;50.756;4.472;2023-09-30T15:10:29;22.90;99.90
8832;DHT22;4452;50.756;4.472;2023-09-30T15:12:55;22.20;99.90
8832;DHT22;4452;50.756;4.472;2023-09-30T15:15:23;22.20;99.90
8832;DHT22;4452;50.756;4.472;2023-09-30T15:17:48;22.60;99.90
8832;DHT22;4452;50.756;4.472;2023-09-30T15:20:14;22.30;99.90
8832;DHT22;4452;50.756;4.472;2023-09-30T15:22:40;21.70;99.90
8832;DHT22;4452;50.756;4.472;2023-09-30T15:25:06;21.60;99.90
8832;DHT22;4452;50.756;4.472;2023-09-30T15:27:32;21.80;99.90
8832;DHT22;4452;50.756;4.472;2023-09-30T15:30:01;21.90;99.90
8832;DHT22;4452;50.756;4.472;2023-09-30T15:32:27;22.50;99.90
8832;DHT22;4452;50.756;4.472;2023-09-30T15:34:53;22.40;99.90
8832;DHT22;4452;50.756;4.472;2023-09-30T15:37:19;22.70;99.90
8832;DHT22;4452;50.756;4.472;2023-09-30T15:39:44;22.30;99.90
8832;DHT22;4452;50.756;4.472;2023-09-30T15:42:13;22.20;99.90
8832;DHT22;4452;50.756;4.472;2023-09-30T15:44:39;21.00;99.90
8832;DHT22;4452;50.756;4.472;2023-09-30T15:47:05;20.90;99.90
8832;DHT22;4452;50.756;4.472;2023-09-30T15:49:32;21.20;99.90
8832;DHT22;4452;50.756;4.472;2023-09-30T15:51:58;21.60;99.90
8832;DHT22;4452;50.756;4.472;2023-09-30T15:54:23;21.80;99.90
8832;DHT22;4452;50.756;4.472;2023-09-30T15:56:49;22.20;99.90
8832;DHT22;4452;50.756;4.472;2023-09-30T15:59:15;22.20;99.90
8832;DHT22;4452;50.756;4.472;2023-09-30T16:01:40;21.60;99.90
8832;DHT22;4452;50.756;4.472;2023-09-30T16:04:06;21.60;99.90
8832;DHT22;4452;50.756;4.472;2023-09-30T16:06:32;21.90;99.90
8832;DHT22;4452;50.756;4.472;2023-09-30T16:08:58;22.90;99.90
8832;DHT22;4452;50.756;4.472;2023-09-30T16:11:27;23.60;99.90
8832;DHT22;4452;50.756;4.472;2023-09-30T16:13:54;23.80;99.90
8832;DHT22;4452;50.756;4.472;2023-09-30T16:16:20;24.20;99.90